Time;durP1;ratioP1;P1;durP2;ratioP2;P2;SDS_P1;SDS_P2;PMS_P1;PMS_P2;Temp;Humidity;BMP_temperature;BMP_pressure;BME280_temperature;BME280_humidity;BME280_pressure;Samples;Min_cycle;Max_cycle;Signal;HPM_P1;HPM_P2
2024/01/13 00:02:19;;;;;;;184.67;57.00;;;1.20;99.90;;;;;;5096080;28;20188;-62
2024/01/13 00:04:44;;;;;;;174.00;56.87;;;1.30;99.90;;;;;;5095905;28;20646;-62
2024/01/13 00:07:10;;;;;;;190.57;59.33;;;1.30;99.90;;;;;;5095756;28;20201;-63
2024/01/13 00:09:36;;;;;;;186.33;58.30;;;1.30;99.90;;;;;;5096088;28;20162;-62
2024/01/13 00:12:02;;;;;;;197.53;59.90;;;1.30;99.90;;;;;;5095684;28;20177;-62
2024/01/13 00:14:28;;;;;;;186.87;60.80;;;1.20;99.90;;;;;;5095347;28;20197;-63
2024/01/13 00:16:53;;;;;;;187.60;61.23;;;1.20;99.90;;;;;;5095663;28;20272;-62
2024/01/13 00:19:19;;;;;;;194.60;54.13;;;1.20;99.90;;;;;;5095534;28;20181;-63
2024/01/13 00:21:45;;;;;;;181.73;56.47;;;1.20;99.90;;;;;;5095587;28;20162;-63
2024/01/13 00:24:11;;;;;;;168.77;58.53;;;1.20;99.90;;;;;;5095413;28;20212;-62
2024/01/13 00:26:36;;;;;;;196.67;59.13;;;1.20;99.90;;;;;;5095594;28;20188;-63
2024/01/13 00:29:02;;;;;;;184.60;59.60;;;1.20;99.90;;;;;;5095128;28;20173;-63
2024/01/13 00:31:28;;;;;;;193.00;61.17;;;1.20;99.90;;;;;;5095370;28;20181;-63
2024/01/13 00:33:54;;;;;;;209.13;63.60;;;1.20;99.90;;;;;;5095302;28;20279;-62
2024/01/13 00:36:19;;;;;;;207.47;60.03;;;1.10;99.90;;;;;;5095707;28;20173;-63
2024/01/13 00:38:45;;;;;;;201.60;62.20;;;1.10;99.90;;;;;;5095532;28;20157;-62
2024/01/13 00:41:11;;;;;;;197.27;62.47;;;1.20;99.90;;;;;;5095154;28;20650;-62
2024/01/13 00:43:37;;;;;;;186.53;62.43;;;1.20;99.90;;;;;;5093552;28;20530;-63
2024/01/13 00:46:04;;;;;;;219.43;60.73;;;1.10;99.90;;;;;;5095296;28;20173;-62
2024/01/13 00:48:30;;;;;;;180.00;60.67;;;1.20;99.90;;;;;;5094904;28;20219;-62
2024/01/13 00:50:56;;;;;;;203.00;62.47;;;1.20;99.90;;;;;;5094699;28;20617;-63
2024/01/13 00:53:22;;;;;;;197.07;62.50;;;1.20;99.90;;;;;;5095407;28;20173;-62
2024/01/13 00:55:48;;;;;;;197.27;63.10;;;1.10;99.90;;;;;;5093288;28;20176;-62
2024/01/13 00:58:13;;;;;;;198.87;63.70;;;1.20;99.90;;;;;;5094403;28;20264;-62
2024/01/13 01:00:39;;;;;;;191.03;59.63;;;1.20;99.90;;;;;;5094845;28;20176;-62
2024/01/13 01:03:05;;;;;;;191.53;60.83;;;1.20;99.90;;;;;;5094787;28;20630;-62
2024/01/13 01:05:30;;;;;;;202.47;61.97;;;1.20;99.90;;;;;;5094776;28;20173;-62
2024/01/13 01:07:56;;;;;;;202.57;62.23;;;1.20;99.90;;;;;;5094529;28;20197;-62
2024/01/13 01:10:22;;;;;;;200.70;60.80;;;1.10;99.90;;;;;;5094923;28;20185;-62
2024/01/13 01:12:48;;;;;;;203.23;61.77;;;1.10;99.90;;;;;;5093013;28;20272;-61
2024/01/13 01:15:13;;;;;;;166.90;61.20;;;1.10;99.90;;;;;;5095079;28;20279;-62
2024/01/13 01:17:39;;;;;;;166.33;58.37;;;1.10;99.90;;;;;;5094524;28;20619;-62
2024/01/13 01:20:05;;;;;;;174.83;57.97;;;1.10;99.90;;;;;;5094638;28;20165;-62
2024/01/13 01:22:31;;;;;;;166.43;56.70;;;1.10;99.90;;;;;;5094397;28;20161;-63
2024/01/13 01:24:57;;;;;;;168.33;59.63;;;1.10;99.90;;;;;;5094446;28;20180;-62
2024/01/13 01:27:23;;;;;;;168.13;61.00;;;1.10;99.90;;;;;;5094233;28;20263;-62
2024/01/13 01:29:48;;;;;;;164.83;54.80;;;1.20;99.90;;;;;;5094049;28;20177;-62
2024/01/13 01:32:14;;;;;;;177.97;59.53;;;1.20;99.90;;;;;;5094206;28;20183;-62
2024/01/13 01:34:40;;;;;;;159.47;59.23;;;1.20;99.90;;;;;;5093970;28;20220;-63
2024/01/13 01:37:06;;;;;;;187.70;59.47;;;1.20;99.90;;;;;;5093822;28;20196;-63
2024/01/13 01:39:31;;;;;;;171.87;58.43;;;1.20;99.90;;;;;;5092745;28;20642;-63
2024/01/13 01:41:57;;;;;;;146.10;54.93;;;1.20;99.90;;;;;;5094493;28;20223;-62
2024/01/13 01:44:23;;;;;;;166.17;56.97;;;1.20;99.90;;;;;;5093910;28;20177;-62
2024/01/13 01:46:49;;;;;;;156.13;57.53;;;1.20;99.90;;;;;;5094032;28;20197;-62
2024/01/13 01:49:17;;;;;;;138.20;52.53;;;1.20;99.90;;;;;;5094022;28;20173;-63
2024/01/13 01:51:43;;;;;;;141.23;52.13;;;1.20;99.90;;;;;;5093816;28;20189;-63
2024/01/13 01:54:10;;;;;;;148.53;55.77;;;1.20;99.90;;;;;;5093863;28;20279;-63
2024/01/13 01:56:36;;;;;;;150.57;55.33;;;1.10;99.90;;;;;;5093704;28;20272;-62
2024/01/13 01:59:03;;;;;;;143.27;51.73;;;1.10;99.90;;;;;;5093614;28;20734;-62
2024/01/13 02:01:30;;;;;;;124.13;52.23;;;1.20;99.90;;;;;;5093763;28;20173;-63
2024/01/13 02:03:57;;;;;;;133.70;56.80;;;1.20;99.90;;;;;;5093616;28;20172;-62
2024/01/13 02:06:23;;;;;;;140.87;54.10;;;1.20;99.90;;;;;;5093892;28;20180;-63
2024/01/13 02:08:49;;;;;;;144.87;55.20;;;1.20;99.90;;;;;;5092711;28;20306;-63
2024/01/13 02:11:15;;;;;;;142.23;52.17;;;1.20;99.90;;;;;;5093555;28;20169;-63
2024/01/13 02:13:44;;;;;;;145.40;52.23;;;1.20;99.90;;;;;;5093410;28;20193;-63
2024/01/13 02:16:10;;;;;;;138.73;55.70;;;1.20;99.90;;;;;;5093476;28;20239;-61
2024/01/13 02:18:36;;;;;;;150.73;55.73;;;1.10;99.90;;;;;;5094005;28;20587;-63
2024/01/13 02:21:02;;;;;;;159.57;55.23;;;1.10;99.90;;;;;;5092206;28;20315;-63
2024/01/13 02:23:29;;;;;;;137.47;52.27;;;1.10;99.90;;;;;;5093438;28;20244;-63
2024/01/13 02:25:55;;;;;;;152.87;57.07;;;1.10;99.90;;;;;;5093384;28;20161;-62
2024/01/13 02:28:21;;;;;;;140.53;57.63;;;1.10;99.90;;;;;;5093385;28;20617;-62
2024/01/13 02:30:47;;;;;;;135.10;54.90;;;1.10;99.90;;;;;;5093436;28;20177;-63
2024/01/13 02:33:13;;;;;;;147.77;57.67;;;1.10;99.90;;;;;;5093525;28;20244;-63
2024/01/13 02:35:39;;;;;;;149.10;54.77;;;1.10;99.90;;;;;;5093377;28;20773;-62
2024/01/13 02:38:04;;;;;;;140.30;57.17;;;1.20;99.90;;;;;;5093639;28;20225;-62
2024/01/13 02:40:30;;;;;;;149.63;57.97;;;1.20;99.90;;;;;;5093716;28;20703;-63
2024/01/13 02:42:56;;;;;;;142.10;57.97;;;1.20;99.90;;;;;;5092901;28;20200;-61
2024/01/13 02:45:22;;;;;;;153.20;59.07;;;1.20;99.90;;;;;;5093395;28;20234;-63
2024/01/13 02:48:02;;;;;;;134.40;57.00;;;1.20;99.90;;;;;;5093430;28;20236;-62
2024/01/13 02:50:27;;;;;;;149.90;55.47;;;1.20;99.90;;;;;;5093379;28;20271;-63
2024/01/13 02:52:56;;;;;;;145.27;57.40;;;1.20;99.90;;;;;;5093432;28;20691;-63
2024/01/13 02:55:21;;;;;;;143.47;54.50;;;1.20;99.90;;;;;;5093301;28;20197;-62
2024/01/13 02:57:47;;;;;;;149.97;56.67;;;1.30;99.90;;;;;;5093674;28;20201;-62
2024/01/13 03:00:13;;;;;;;150.00;54.70;;;1.30;99.90;;;;;;5092766;28;20200;-61
2024/01/13 03:02:40;;;;;;;134.47;54.23;;;1.20;99.90;;;;;;5093335;28;20218;-63
2024/01/13 03:05:11;;;;;;;139.90;55.83;;;1.30;99.90;;;;;;5093244;28;20181;-63
2024/01/13 03:07:37;;;;;;;142.80;56.80;;;1.30;99.90;;;;;;5092958;28;20193;-63
2024/01/13 03:10:03;;;;;;;137.53;54.97;;;1.30;99.90;;;;;;5099360;28;20187;-62
2024/01/13 03:12:29;;;;;;;150.07;55.33;;;1.30;99.90;;;;;;5122172;28;20699;-61
2024/01/13 03:14:56;;;;;;;139.20;55.63;;;1.30;99.90;;;;;;5115538;27;20228;-62
2024/01/13 03:17:22;;;;;;;135.10;51.57;;;1.20;99.90;;;;;;5113228;28;20680;-62
2024/01/13 03:19:48;;;;;;;142.67;55.60;;;1.20;99.90;;;;;;5119205;27;20182;-63
2024/01/13 03:22:13;;;;;;;148.57;54.80;;;1.20;99.90;;;;;;5129994;27;20256;-63
2024/01/13 03:24:39;;;;;;;141.73;55.83;;;1.20;99.90;;;;;;5120181;27;20209;-63
2024/01/13 03:27:05;;;;;;;135.97;55.13;;;1.20;99.90;;;;;;5134491;27;20662;-63
2024/01/13 03:29:30;;;;;;;120.67;51.90;;;1.20;99.90;;;;;;5123630;27;20648;-62
2024/01/13 03:31:56;;;;;;;137.63;54.10;;;1.20;99.90;;;;;;5113308;27;20188;-62
2024/01/13 03:34:22;;;;;;;123.67;52.30;;;1.20;99.90;;;;;;5126408;27;20564;-62
2024/01/13 03:36:48;;;;;;;124.97;52.27;;;1.20;99.90;;;;;;5126628;27;20572;-62
2024/01/13 03:39:13;;;;;;;127.90;49.13;;;1.20;99.90;;;;;;5137567;27;20172;-62
2024/01/13 03:41:39;;;;;;;132.50;51.07;;;1.20;99.90;;;;;;5137275;27;20176;-63
2024/01/13 03:44:05;;;;;;;125.63;52.30;;;1.20;99.90;;;;;;5124059;27;20172;-63
2024/01/13 03:46:31;;;;;;;123.17;50.30;;;1.20;99.90;;;;;;5131046;27;20256;-62
2024/01/13 03:48:56;;;;;;;120.87;50.33;;;1.20;99.90;;;;;;5137004;27;20568;-63
2024/01/13 03:51:22;;;;;;;125.83;50.93;;;1.20;99.90;;;;;;5122242;27;20204;-63
2024/01/13 03:53:48;;;;;;;117.40;50.07;;;1.20;99.90;;;;;;5120927;27;20214;-62
2024/01/13 03:56:14;;;;;;;120.40;50.93;;;1.20;99.90;;;;;;5132277;27;20256;-63
2024/01/13 03:58:40;;;;;;;118.73;50.00;;;1.20;99.90;;;;;;5129236;27;20660;-62
2024/01/13 04:01:05;;;;;;;122.03;50.80;;;1.20;99.90;;;;;;5114535;27;20557;-62
2024/01/13 04:03:32;;;;;;;119.27;51.43;;;1.20;99.90;;;;;;5128044;27;20240;-63
2024/01/13 04:05:58;;;;;;;109.73;47.63;;;1.30;99.90;;;;;;5123984;27;20181;-63
2024/01/13 04:08:24;;;;;;;102.60;47.63;;;1.30;99.90;;;;;;5135379;27;20669;-62
2024/01/13 04:10:50;;;;;;;103.03;44.73;;;1.30;99.90;;;;;;5136910;27;20201;-63
2024/01/13 04:13:16;;;;;;;111.17;47.60;;;1.30;99.90;;;;;;5136621;27;20172;-61
2024/01/13 04:15:42;;;;;;;104.13;48.30;;;1.30;99.90;;;;;;5136601;27;20199;-63
2024/01/13 04:18:08;;;;;;;106.20;45.93;;;1.40;99.90;;;;;;5136574;27;20191;-63
2024/01/13 04:20:34;;;;;;;111.13;48.20;;;1.30;99.90;;;;;;5136889;27;20164;-63
2024/01/13 04:23:00;;;;;;;98.63;46.87;;;1.30;99.90;;;;;;5136524;27;20246;-63
2024/01/13 04:25:26;;;;;;;106.13;47.17;;;1.30;99.90;;;;;;5136451;27;20203;-63
2024/01/13 04:27:54;;;;;;;100.80;45.63;;;1.30;99.90;;;;;;5136956;27;20192;-62
2024/01/13 04:30:20;;;;;;;101.03;46.77;;;1.30;99.90;;;;;;5126533;27;20185;-63
2024/01/13 04:32:46;;;;;;;97.03;46.57;;;1.30;99.90;;;;;;5094748;28;20180;-62
2024/01/13 04:35:12;;;;;;;98.73;46.33;;;1.30;99.90;;;;;;5095341;28;20200;-63
2024/01/13 04:37:39;;;;;;;96.73;44.77;;;1.30;99.90;;;;;;5095530;28;20189;-63
2024/01/13 04:40:05;;;;;;;89.57;44.07;;;1.30;99.90;;;;;;5095328;28;20184;-63
2024/01/13 04:42:31;;;;;;;93.00;45.47;;;1.30;99.90;;;;;;5095245;28;20173;-62
2024/01/13 04:44:57;;;;;;;90.03;44.33;;;1.30;99.90;;;;;;5095233;28;20199;-63
2024/01/13 04:47:24;;;;;;;87.17;43.53;;;1.30;99.90;;;;;;5095159;28;20204;-62
2024/01/13 04:49:50;;;;;;;93.77;44.73;;;1.30;99.90;;;;;;5095142;28;20209;-63
2024/01/13 04:52:16;;;;;;;90.60;45.13;;;1.30;99.90;;;;;;5094935;28;20200;-63
2024/01/13 04:54:41;;;;;;;83.23;42.27;;;1.30;99.90;;;;;;5094892;28;20201;-62
2024/01/13 04:57:07;;;;;;;90.37;42.97;;;1.30;99.90;;;;;;5095139;28;20201;-63
2024/01/13 04:59:33;;;;;;;83.97;41.13;;;1.40;99.90;;;;;;5094608;28;20209;-63
2024/01/13 05:01:59;;;;;;;80.77;40.90;;;1.40;99.90;;;;;;5094836;28;20181;-63
2024/01/13 05:04:24;;;;;;;79.13;40.50;;;1.40;99.90;;;;;;5095217;28;20188;-62
2024/01/13 05:06:50;;;;;;;74.00;39.30;;;1.40;99.90;;;;;;5094795;28;20216;-62
2024/01/13 05:09:16;;;;;;;79.80;40.37;;;1.40;99.90;;;;;;5094901;28;20177;-63
2024/01/13 05:11:42;;;;;;;77.70;41.37;;;1.40;99.90;;;;;;5094710;28;20180;-63
2024/01/13 05:14:07;;;;;;;80.13;39.43;;;1.40;99.90;;;;;;5094274;28;20294;-63
2024/01/13 05:16:33;;;;;;;83.50;40.63;;;1.40;99.90;;;;;;5094426;28;20193;-62
2024/01/13 05:18:59;;;;;;;80.80;41.43;;;1.40;99.90;;;;;;5094508;28;20580;-63
2024/01/13 05:21:24;;;;;;;80.63;38.83;;;1.40;99.90;;;;;;5094606;28;20568;-63
2024/01/13 05:23:50;;;;;;;73.43;38.23;;;1.40;99.90;;;;;;5093028;28;20646;-62
2024/01/13 05:26:16;;;;;;;77.13;39.43;;;1.50;99.90;;;;;;5094325;28;20581;-62
2024/01/13 05:28:42;;;;;;;77.30;39.47;;;1.40;99.90;;;;;;5094238;28;20603;-63
2024/01/13 05:31:07;;;;;;;77.63;39.10;;;1.40;99.90;;;;;;5094473;28;20617;-62
2024/01/13 05:33:33;;;;;;;81.83;40.27;;;1.40;99.90;;;;;;5093017;28;20185;-63
2024/01/13 05:35:59;;;;;;;77.03;39.70;;;1.40;99.90;;;;;;5093574;28;20220;-62
2024/01/13 05:38:26;;;;;;;81.97;40.30;;;1.40;99.90;;;;;;5094460;28;20189;-63
2024/01/13 05:40:51;;;;;;;85.10;41.33;;;1.40;99.90;;;;;;5094357;28;20206;-63
2024/01/13 05:43:18;;;;;;;79.00;40.17;;;1.40;99.90;;;;;;5094111;28;20181;-63
2024/01/13 05:45:45;;;;;;;73.77;40.97;;;1.40;99.90;;;;;;5093962;28;20181;-63
2024/01/13 05:48:11;;;;;;;72.73;40.97;;;1.40;99.90;;;;;;5094015;28;20188;-62
2024/01/13 05:50:37;;;;;;;78.30;39.90;;;1.50;99.90;;;;;;5094126;28;20732;-63
2024/01/13 05:53:03;;;;;;;85.60;40.60;;;1.50;99.90;;;;;;5093972;28;20177;-63
2024/01/13 05:55:28;;;;;;;80.30;41.50;;;1.50;99.90;;;;;;5093717;28;20197;-63
2024/01/13 05:57:54;;;;;;;81.43;40.37;;;1.50;99.90;;;;;;5093957;28;20189;-62
2024/01/13 06:00:20;;;;;;;69.10;37.80;;;1.50;99.90;;;;;;5093624;28;20173;-62
2024/01/13 06:02:46;;;;;;;65.17;38.10;;;1.50;99.90;;;;;;5092673;28;20173;-63
2024/01/13 06:05:11;;;;;;;73.13;37.07;;;1.50;99.90;;;;;;5093675;28;20177;-62
2024/01/13 06:07:37;;;;;;;73.13;37.37;;;1.50;99.90;;;;;;5093796;28;20280;-62
2024/01/13 06:10:04;;;;;;;68.57;36.07;;;1.50;99.90;;;;;;5093734;28;20177;-63
2024/01/13 06:12:30;;;;;;;69.73;36.63;;;1.50;99.90;;;;;;5093690;28;20176;-63
2024/01/13 06:14:56;;;;;;;72.77;36.70;;;1.50;99.90;;;;;;5093339;28;20189;-62
2024/01/13 06:17:22;;;;;;;72.80;37.60;;;1.50;99.90;;;;;;5093569;28;20196;-62
2024/01/13 06:19:48;;;;;;;70.00;36.60;;;1.50;99.90;;;;;;5093769;28;20203;-63
2024/01/13 06:22:14;;;;;;;66.27;35.27;;;1.50;99.90;;;;;;5093637;28;20642;-63
2024/01/13 06:24:40;;;;;;;72.73;37.83;;;1.50;99.90;;;;;;5092285;28;20192;-63
2024/01/13 06:27:05;;;;;;;68.77;36.20;;;1.50;99.90;;;;;;5093655;28;20197;-63
2024/01/13 06:29:31;;;;;;;64.03;36.17;;;1.40;99.90;;;;;;5093517;28;20173;-63
2024/01/13 06:31:57;;;;;;;58.23;34.90;;;1.40;99.90;;;;;;5093574;28;20566;-62
2024/01/13 06:34:23;;;;;;;64.23;35.80;;;1.40;99.90;;;;;;5093329;28;20271;-63
2024/01/13 06:36:49;;;;;;;64.33;35.33;;;1.50;99.90;;;;;;5100093;28;20695;-61
2024/01/13 06:39:15;;;;;;;69.43;36.60;;;1.40;99.90;;;;;;5099776;28;20738;-61
2024/01/13 06:41:40;;;;;;;58.40;34.10;;;1.40;99.90;;;;;;5116810;28;20169;-63
2024/01/13 06:44:06;;;;;;;69.00;36.30;;;1.40;99.90;;;;;;5116413;28;20177;-62
2024/01/13 06:46:32;;;;;;;66.97;35.30;;;1.40;99.90;;;;;;5116605;28;20245;-62
2024/01/13 06:48:58;;;;;;;64.93;36.03;;;1.40;99.90;;;;;;5103829;28;20542;-62
2024/01/13 06:51:24;;;;;;;59.27;35.43;;;1.40;99.90;;;;;;5102408;28;20189;-63
2024/01/13 06:53:49;;;;;;;64.60;34.30;;;1.40;99.90;;;;;;5102102;28;20633;-63
2024/01/13 06:56:15;;;;;;;61.57;32.83;;;1.40;99.90;;;;;;5107645;28;20257;-62
2024/01/13 06:58:41;;;;;;;60.23;34.53;;;1.40;99.90;;;;;;5106087;28;20168;-63
2024/01/13 07:01:07;;;;;;;63.53;35.73;;;1.40;99.90;;;;;;5105303;28;20661;-63
2024/01/13 07:03:32;;;;;;;64.00;35.27;;;1.40;99.90;;;;;;5107730;28;20223;-63
2024/01/13 07:05:58;;;;;;;61.67;34.20;;;1.40;99.90;;;;;;5113821;28;20224;-63
2024/01/13 07:08:24;;;;;;;60.60;33.97;;;1.40;99.90;;;;;;5115861;28;20611;-63
2024/01/13 07:10:51;;;;;;;65.30;33.57;;;1.40;99.90;;;;;;5117093;28;20172;-62
2024/01/13 07:13:17;;;;;;;61.53;34.00;;;1.50;99.90;;;;;;5117059;28;20542;-63
2024/01/13 07:15:43;;;;;;;65.63;34.90;;;1.50;99.90;;;;;;5116814;28;20267;-63
2024/01/13 07:18:09;;;;;;;67.87;34.90;;;1.50;99.90;;;;;;5116876;27;20285;-62
2024/01/13 07:20:34;;;;;;;64.30;35.63;;;1.50;99.90;;;;;;5117075;28;20637;-63
2024/01/13 07:23:00;;;;;;;71.03;35.07;;;1.50;99.90;;;;;;5117072;28;20173;-63
2024/01/13 07:25:27;;;;;;;52.23;32.50;;;1.50;99.90;;;;;;5117206;28;20247;-62
2024/01/13 07:27:52;;;;;;;61.23;33.40;;;1.50;99.90;;;;;;5116945;28;20203;-63
2024/01/13 07:30:18;;;;;;;60.47;34.87;;;1.50;99.90;;;;;;5112116;28;20181;-63
2024/01/13 07:32:45;;;;;;;59.17;33.00;;;1.50;99.90;;;;;;5096414;28;20242;-63
2024/01/13 07:35:11;;;;;;;63.63;33.73;;;1.60;99.90;;;;;;5095505;28;20192;-62
2024/01/13 07:37:37;;;;;;;60.10;35.13;;;1.60;99.90;;;;;;5095557;28;20197;-63
2024/01/13 07:40:03;;;;;;;61.90;36.20;;;1.60;99.90;;;;;;5096223;28;20173;-63
2024/01/13 07:42:28;;;;;;;56.67;34.03;;;1.50;99.90;;;;;;5095116;28;20657;-63
2024/01/13 07:44:54;;;;;;;60.67;34.70;;;1.50;99.90;;;;;;5094070;28;20169;-63
2024/01/13 07:47:20;;;;;;;60.03;35.60;;;1.50;99.90;;;;;;5096003;28;20238;-63
2024/01/13 07:49:46;;;;;;;57.40;36.10;;;1.50;99.90;;;;;;5096270;28;20181;-63
2024/01/13 07:52:11;;;;;;;59.33;35.70;;;1.50;99.90;;;;;;5095900;28;20200;-63
2024/01/13 07:54:37;;;;;;;54.13;33.63;;;1.50;99.90;;;;;;5096119;28;20197;-62
2024/01/13 07:57:03;;;;;;;49.87;33.77;;;1.50;99.90;;;;;;5096344;28;20196;-63
2024/01/13 07:59:29;;;;;;;58.63;33.23;;;1.60;99.90;;;;;;5095555;28;20184;-63
2024/01/13 08:01:55;;;;;;;52.20;32.93;;;1.60;99.90;;;;;;5095831;28;20192;-63
2024/01/13 08:04:21;;;;;;;51.87;34.67;;;1.70;99.90;;;;;;5095752;28;20552;-63
2024/01/13 08:06:47;;;;;;;48.93;32.37;;;1.70;99.90;;;;;;5094218;28;20193;-63
2024/01/13 08:09:12;;;;;;;48.13;32.43;;;1.70;99.90;;;;;;5095886;28;20165;-63
2024/01/13 08:11:38;;;;;;;46.80;31.73;;;1.80;99.90;;;;;;5095905;28;20173;-63
2024/01/13 08:14:06;;;;;;;45.23;31.37;;;1.80;99.90;;;;;;5095213;28;20219;-63
2024/01/13 08:16:32;;;;;;;46.10;29.07;;;1.80;99.90;;;;;;5095805;28;20739;-63
2024/01/13 08:19:00;;;;;;;36.30;27.73;;;1.80;99.90;;;;;;5095423;28;20173;-63
2024/01/13 08:21:26;;;;;;;43.37;29.10;;;1.80;99.90;;;;;;5095988;28;20180;-63
2024/01/13 08:23:52;;;;;;;46.33;29.47;;;1.90;99.90;;;;;;5094110;28;20174;-64
2024/01/13 08:26:18;;;;;;;40.00;27.07;;;1.90;99.90;;;;;;5095225;28;20173;-63
2024/01/13 08:28:44;;;;;;;34.57;26.77;;;1.90;99.90;;;;;;5095758;28;20189;-64
2024/01/13 08:31:09;;;;;;;35.53;25.40;;;1.90;99.90;;;;;;5095130;28;20180;-63
2024/01/13 08:33:35;;;;;;;35.70;26.80;;;1.90;99.90;;;;;;5095719;28;20574;-62
2024/01/13 08:36:01;;;;;;;37.70;26.60;;;1.90;99.90;;;;;;5095458;28;20169;-62
2024/01/13 08:38:27;;;;;;;42.10;26.47;;;2.00;99.90;;;;;;5095101;28;20193;-63
2024/01/13 08:40:52;;;;;;;34.97;24.13;;;1.90;99.90;;;;;;5095695;28;20248;-63
2024/01/13 08:43:18;;;;;;;35.63;25.37;;;2.00;99.90;;;;;;5095170;28;20176;-63
2024/01/13 08:45:44;;;;;;;33.80;24.07;;;2.00;99.90;;;;;;5094756;28;20180;-63
2024/01/13 08:48:10;;;;;;;37.80;26.13;;;2.00;99.90;;;;;;5095485;28;20571;-64
2024/01/13 08:50:36;;;;;;;36.13;24.10;;;2.00;99.90;;;;;;5094784;28;20272;-62
2024/01/13 08:53:02;;;;;;;34.27;23.27;;;2.00;99.90;;;;;;5095079;28;20551;-62
2024/01/13 08:55:27;;;;;;;33.27;23.87;;;2.00;99.90;;;;;;5094626;28;20193;-62
2024/01/13 08:57:53;;;;;;;35.93;23.17;;;2.00;99.90;;;;;;5094924;28;20189;-62
2024/01/13 09:00:22;;;;;;;30.77;22.47;;;2.00;99.90;;;;;;5094473;28;20693;-62
2024/01/13 09:02:47;;;;;;;31.43;21.77;;;2.00;99.90;;;;;;5094634;28;20647;-63
2024/01/13 09:05:13;;;;;;;37.60;22.23;;;2.00;99.90;;;;;;5094702;28;20172;-63
2024/01/13 09:07:39;;;;;;;29.23;22.33;;;2.10;99.90;;;;;;5094843;28;20196;-64
2024/01/13 09:10:06;;;;;;;29.23;21.73;;;2.10;99.90;;;;;;5094485;28;20701;-62
2024/01/13 09:12:31;;;;;;;31.00;21.53;;;2.10;99.90;;;;;;5094488;28;20214;-62
2024/01/13 09:14:57;;;;;;;33.80;21.77;;;2.10;99.90;;;;;;5094530;28;20604;-62
2024/01/13 09:17:23;;;;;;;33.87;22.23;;;2.20;99.90;;;;;;5094334;28;20189;-62
2024/01/13 09:19:49;;;;;;;32.83;22.37;;;2.10;99.90;;;;;;5094846;28;20659;-62
2024/01/13 09:22:15;;;;;;;31.57;21.87;;;2.20;99.90;;;;;;5094369;28;20178;-63
2024/01/13 09:24:44;;;;;;;29.93;20.33;;;2.10;99.90;;;;;;5094328;28;20205;-63
2024/01/13 09:27:09;;;;;;;33.73;23.03;;;2.10;99.90;;;;;;5094393;28;20200;-63
2024/01/13 09:29:35;;;;;;;38.63;22.37;;;2.20;99.90;;;;;;5093937;28;20646;-63
2024/01/13 09:32:04;;;;;;;33.50;22.23;;;2.20;99.90;;;;;;5094122;28;20581;-62
2024/01/13 09:34:30;;;;;;;33.80;22.57;;;2.20;99.90;;;;;;5094160;28;20193;-62
2024/01/13 09:36:56;;;;;;;30.80;22.87;;;2.10;99.90;;;;;;5092705;28;20259;-62
2024/01/13 09:39:22;;;;;;;33.37;22.13;;;2.10;99.90;;;;;;5094558;28;20531;-62
2024/01/13 09:41:48;;;;;;;39.57;23.67;;;2.10;99.90;;;;;;5094099;28;20226;-63
2024/01/13 09:44:29;;;;;;;35.00;22.67;;;2.10;99.90;;;;;;5092294;28;20226;-61
2024/01/13 09:46:58;;;;;;;37.57;23.60;;;2.10;99.90;;;;;;5094063;28;20584;-62
2024/01/13 09:49:28;;;;;;;37.00;24.10;;;2.10;99.90;;;;;;5093723;28;20169;-64
2024/01/13 09:51:54;;;;;;;32.70;23.23;;;2.20;99.90;;;;;;5093622;28;20673;-64
2024/01/13 09:54:30;;;;;;;40.93;26.07;;;2.20;99.90;;;;;;5093895;28;20225;-63
2024/01/13 09:56:58;;;;;;;36.70;24.80;;;2.20;99.90;;;;;;5093793;28;20225;-64
2024/01/13 09:59:28;;;;;;;37.07;25.27;;;2.20;99.90;;;;;;5113691;27;20247;-64
2024/01/13 10:01:54;;;;;;;36.87;25.73;;;2.20;99.90;;;;;;5113868;27;20214;-63
2024/01/13 10:04:20;;;;;;;34.47;24.97;;;2.20;99.90;;;;;;5119843;27;20187;-63
2024/01/13 10:06:48;;;;;;;45.57;26.90;;;2.20;99.90;;;;;;5125600;27;20204;-63
2024/01/13 10:09:14;;;;;;;41.93;27.57;;;2.10;99.90;;;;;;5126138;27;20633;-63
2024/01/13 10:11:40;;;;;;;39.07;26.17;;;2.10;99.90;;;;;;5123760;27;20184;-63
2024/01/13 10:14:08;;;;;;;45.90;27.80;;;2.20;99.90;;;;;;5122999;27;20207;-64
2024/01/13 10:16:34;;;;;;;44.43;26.67;;;2.20;99.90;;;;;;5113899;27;20196;-64
2024/01/13 10:19:02;;;;;;;42.73;27.83;;;2.10;99.90;;;;;;5128427;27;20206;-63
2024/01/13 10:21:29;;;;;;;46.43;28.67;;;2.10;99.90;;;;;;5123284;27;20728;-63
2024/01/13 10:24:00;;;;;;;43.30;28.07;;;2.10;99.90;;;;;;5134150;27;20632;-64
2024/01/13 10:26:28;;;;;;;48.23;28.67;;;2.20;99.90;;;;;;5123410;27;20187;-63
2024/01/13 10:28:57;;;;;;;43.17;28.77;;;2.20;99.90;;;;;;5131199;27;20184;-63
2024/01/13 10:31:24;;;;;;;43.67;28.10;;;2.20;99.90;;;;;;5119039;28;20185;-63
2024/01/13 10:33:50;;;;;;;46.60;29.63;;;2.20;99.90;;;;;;5125590;28;20187;-63
2024/01/13 10:36:24;;;;;;;44.37;27.77;;;2.20;99.90;;;;;;5113565;27;20164;-64
2024/01/13 10:38:51;;;;;;;49.30;30.17;;;2.10;99.90;;;;;;5112296;28;20313;-63
2024/01/13 10:41:25;;;;;;;47.50;30.30;;;2.10;99.90;;;;;;5104330;28;20177;-63
2024/01/13 10:44:03;;;;;;;42.77;28.50;;;2.20;99.90;;;;;;5103090;28;20157;-64
2024/01/13 10:46:30;;;;;;;46.93;28.90;;;2.10;99.90;;;;;;5102271;28;20185;-63
2024/01/13 10:49:01;;;;;;;49.13;31.30;;;2.10;99.90;;;;;;5113617;28;20175;-64
2024/01/13 10:51:42;;;;;;;47.07;29.47;;;2.20;99.90;;;;;;5112014;28;20189;-63
2024/01/13 10:54:09;;;;;;;46.00;28.83;;;2.10;99.90;;;;;;5113374;28;20184;-63
2024/01/13 10:56:38;;;;;;;51.40;31.03;;;2.10;99.90;;;;;;5113505;28;20184;-64
2024/01/13 10:59:04;;;;;;;48.87;30.43;;;2.10;99.90;;;;;;5112471;28;20176;-62
2024/01/13 11:01:31;;;;;;;53.13;31.93;;;2.10;99.90;;;;;;5097943;28;20524;-63
2024/01/13 11:03:58;;;;;;;53.80;31.03;;;2.10;99.90;;;;;;5092771;28;20584;-64
2024/01/13 11:06:25;;;;;;;46.77;29.63;;;2.10;99.90;;;;;;5093089;28;20164;-63
2024/01/13 11:08:52;;;;;;;51.57;31.03;;;2.10;99.90;;;;;;5093151;28;20176;-64
2024/01/13 11:11:29;;;;;;;50.13;31.27;;;2.10;99.90;;;;;;5092845;28;20638;-63
2024/01/13 11:14:07;;;;;;;52.23;30.00;;;2.10;99.90;;;;;;5093338;28;20614;-64
2024/01/13 11:16:34;;;;;;;50.10;30.33;;;2.10;99.90;;;;;;5092777;28;20217;-63
2024/01/13 11:19:00;;;;;;;50.83;30.73;;;2.00;99.90;;;;;;5092735;28;20188;-64
2024/01/13 11:21:32;;;;;;;51.53;31.20;;;2.00;99.90;;;;;;5093090;28;20165;-64
2024/01/13 11:24:19;;;;;;;47.07;29.30;;;2.00;99.90;;;;;;5092775;28;20218;-64
2024/01/13 11:26:48;;;;;;;45.57;27.87;;;2.00;99.90;;;;;;5092708;28;20185;-63
2024/01/13 11:29:24;;;;;;;47.57;30.80;;;2.00;99.90;;;;;;5092625;28;20180;-64
2024/01/13 11:31:58;;;;;;;48.03;29.37;;;2.00;99.90;;;;;;5092381;28;20180;-63
2024/01/13 11:34:24;;;;;;;45.17;30.53;;;2.00;99.90;;;;;;5092511;28;20221;-64
2024/01/13 11:36:52;;;;;;;51.17;29.23;;;2.00;99.90;;;;;;5092502;28;20196;-63
2024/01/13 11:39:19;;;;;;;48.27;30.10;;;2.00;99.90;;;;;;5093134;28;20176;-63
2024/01/13 11:41:55;;;;;;;47.27;29.03;;;2.00;99.90;;;;;;5095725;28;20180;-63
2024/01/13 11:44:34;;;;;;;44.30;29.97;;;2.00;99.90;;;;;;5096431;28;20161;-63
2024/01/13 11:47:07;;;;;;;49.47;31.53;;;2.00;99.90;;;;;;5095868;28;20197;-63
2024/01/13 11:49:37;;;;;;;45.60;28.73;;;2.00;99.90;;;;;;5096028;28;20548;-64
2024/01/13 11:52:03;;;;;;;52.57;30.80;;;2.00;99.90;;;;;;5095965;28;20654;-63
2024/01/13 11:54:30;;;;;;;49.47;29.40;;;2.00;99.90;;;;;;5095889;28;20283;-63
2024/01/13 11:57:01;;;;;;;49.77;29.37;;;2.00;99.90;;;;;;5095887;28;20190;-64
2024/01/13 11:59:28;;;;;;;51.03;30.43;;;2.00;99.90;;;;;;5095836;28;20170;-63
2024/01/13 12:01:55;;;;;;;48.37;30.00;;;2.00;99.90;;;;;;5095573;28;20173;-64
2024/01/13 12:04:23;;;;;;;45.97;29.83;;;1.90;99.90;;;;;;5095795;28;20550;-63
2024/01/13 12:06:53;;;;;;;54.07;31.17;;;1.90;99.90;;;;;;5095719;28;20204;-64
2024/01/13 12:09:22;;;;;;;47.80;30.00;;;2.00;99.90;;;;;;5095668;28;20184;-63
2024/01/13 12:12:14;;;;;;;47.77;30.93;;;2.00;99.90;;;;;;5094444;28;20208;-63
2024/01/13 12:14:40;;;;;;;49.37;29.30;;;2.00;99.90;;;;;;5092480;28;20209;-62
2024/01/13 12:17:08;;;;;;;47.73;30.43;;;2.00;99.90;;;;;;5095780;28;20193;-63
2024/01/13 12:19:36;;;;;;;50.20;29.97;;;2.00;99.90;;;;;;5095444;28;20541;-63
2024/01/13 12:22:06;;;;;;;47.77;30.00;;;2.10;99.90;;;;;;5094205;28;20185;-64
2024/01/13 12:24:33;;;;;;;50.97;30.20;;;2.00;99.90;;;;;;5095393;28;20196;-63
2024/01/13 12:26:59;;;;;;;50.40;31.43;;;2.10;99.90;;;;;;5095255;28;20197;-64
2024/01/13 12:29:29;;;;;;;48.13;29.27;;;2.00;99.90;;;;;;5095329;28;20173;-64
2024/01/13 12:31:59;;;;;;;46.13;28.67;;;2.00;99.90;;;;;;5095290;28;20184;-63